Time;durP1;ratioP1;P1;durP2;ratioP2;P2;SDS_P1;SDS_P2;PMS_P1;PMS_P2;Temp;Humidity;BMP_temperature;BMP_pressure;BME280_temperature;BME280_humidity;BME280_pressure;Samples;Min_cycle;Max_cycle;Signal;HPM_P1;HPM_P2
2022/08/11 00:01:48;;;;;;;7.60;4.45;;;;;;;;;;5004433;28;20042;-46
2022/08/11 00:04:15;;;;;;;6.15;4.60;;;;;;;;;;5001206;28;20030;-45
2022/08/11 00:06:42;;;;;;;5.38;4.55;;;;;;;;;;5006797;28;20038;-49
2022/08/11 00:09:17;;;;;;;9.32;4.20;;;;;;;;;;5004150;28;20034;-45
2022/08/11 00:11:46;;;;;;;6.32;4.57;;;;;;;;;;5006031;28;20034;-46
2022/08/11 00:14:27;;;;;;;9.07;4.28;;;;;;;;;;5005861;28;20034;-47
2022/08/11 00:16:57;;;;;;;7.00;4.60;;;;;;;;;;5000408;28;20415;-46
2022/08/11 00:19:34;;;;;;;10.00;4.35;;;;;;;;;;5005094;28;20049;-48
2022/08/11 00:22:02;;;;;;;4.95;4.28;;;;;;;;;;5004513;28;20481;-46
2022/08/11 00:24:36;;;;;;;7.13;4.20;;;;;;;;;;5005404;28;20030;-47
2022/08/11 00:27:03;;;;;;;5.32;4.20;;;;;;;;;;5004717;28;20115;-47
2022/08/11 00:29:29;;;;;;;8.25;4.30;;;;;;;;;;5003405;28;20510;-47
2022/08/11 00:31:57;;;;;;;4.40;4.00;;;;;;;;;;5004504;28;20073;-46
2022/08/11 00:34:26;;;;;;;4.88;3.92;;;;;;;;;;5006393;28;20022;-49
2022/08/11 00:36:58;;;;;;;5.65;4.70;;;;;;;;;;5004024;28;20026;-48
2022/08/11 00:39:25;;;;;;;4.90;4.15;;;;;;;;;;5002541;28;20509;-47
2022/08/11 00:42:09;;;;;;;5.72;4.28;;;;;;;;;;5006750;28;20038;-46
2022/08/11 00:45:12;;;;;;;6.30;4.38;;;;;;;;;;5005886;28;20038;-47
2022/08/11 00:48:06;;;;;;;4.78;4.30;;;;;;;;;;4999784;28;20026;-46
2022/08/11 00:50:59;;;;;;;4.47;4.07;;;;;;;;;;5002771;28;20034;-46
2022/08/11 00:53:45;;;;;;;4.55;4.13;;;;;;;;;;5005037;28;20058;-47
2022/08/11 00:56:44;;;;;;;7.78;4.45;;;;;;;;;;5003780;28;20042;-49
2022/08/11 00:59:33;;;;;;;4.47;4.00;;;;;;;;;;5002195;28;20092;-47
2022/08/11 01:02:14;;;;;;;7.75;4.25;;;;;;;;;;5006331;28;20038;-46
2022/08/11 01:04:52;;;;;;;4.78;4.30;;;;;;;;;;5000472;28;20022;-48
2022/08/11 01:07:44;;;;;;;5.15;4.47;;;;;;;;;;5006519;28;20022;-48
2022/08/11 01:10:32;;;;;;;4.35;3.95;;;;;;;;;;4967152;28;20035;-47
2022/08/11 01:13:28;;;;;;;5.57;4.03;;;;;;;;;;4968670;28;20109;-46
2022/08/11 01:16:11;;;;;;;9.25;4.30;;;;;;;;;;4968318;28;20094;-46
2022/08/11 01:18:43;;;;;;;7.40;3.90;;;;;;;;;;4969536;28;20034;-46
2022/08/11 01:21:49;;;;;;;4.22;3.83;;;;;;;;;;4964262;28;20042;-46
2022/08/11 01:24:58;;;;;;;6.43;4.10;;;;;;;;;;4954585;28;20102;-49
2022/08/11 01:27:52;;;;;;;5.03;4.13;;;;;;;;;;4967775;28;20101;-46
2022/08/11 01:30:55;;;;;;;6.65;4.13;;;;;;;;;;4951942;28;20039;-46
2022/08/11 01:33:58;;;;;;;7.15;4.10;;;;;;;;;;4967080;28;20047;-49
2022/08/11 01:37:07;;;;;;;4.28;3.85;;;;;;;;;;4964061;28;20043;-46
2022/08/11 01:39:47;;;;;;;6.75;4.22;;;;;;;;;;4928456;29;20194;-46
2022/08/11 01:45:28;;;;;;;4.60;4.20;;;;;;;;;;4927537;29;20039;-47
2022/08/11 01:48:14;;;;;;;4.00;3.70;;;;;;;;;;4946669;28;20479;-46
2022/08/11 01:51:14;;;;;;;6.45;4.45;;;;;;;;;;4948557;28;20039;-46
2022/08/11 01:54:12;;;;;;;4.97;4.45;;;;;;;;;;4948055;28;20512;-47
2022/08/11 01:57:01;;;;;;;9.15;4.13;;;;;;;;;;4945671;28;20608;-46
2022/08/11 01:59:37;;;;;;;5.53;4.20;;;;;;;;;;4949385;28;20122;-51
2022/08/11 02:02:11;;;;;;;7.65;4.30;;;;;;;;;;4948299;28;20039;-47
2022/08/11 02:04:46;;;;;;;8.45;4.30;;;;;;;;;;4946656;28;20062;-46
2022/08/11 02:07:48;;;;;;;5.75;4.03;;;;;;;;;;4948315;28;20519;-47
2022/08/11 02:13:30;;;;;;;5.88;4.00;;;;;;;;;;4948100;28;20147;-48
2022/08/11 02:16:12;;;;;;;5.20;3.95;;;;;;;;;;4957463;28;20522;-46
2022/08/11 02:24:34;;;;;;;4.35;3.85;;;;;;;;;;5004977;28;20037;-47
2022/08/11 02:27:13;;;;;;;6.32;3.78;;;;;;;;;;5006925;28;20386;-46
2022/08/11 02:29:54;;;;;;;11.05;3.60;;;;;;;;;;5004792;28;20522;-46
2022/08/11 02:35:40;;;;;;;4.18;3.65;;;;;;;;;;5005834;28;20048;-47
2022/08/11 02:38:17;;;;;;;6.78;3.88;;;;;;;;;;5003542;28;20022;-48
2022/08/11 02:44:22;;;;;;;6.55;3.65;;;;;;;;;;5004803;28;20076;-46
2022/08/11 02:46:57;;;;;;;6.63;3.60;;;;;;;;;;5004274;28;20033;-47
2022/08/11 02:49:59;;;;;;;4.93;3.55;;;;;;;;;;5002350;28;20741;-48
2022/08/11 02:52:31;;;;;;;;;;;;;;;;;;5004966;28;20034;-46
2022/08/11 02:55:14;;;;;;;4.10;3.70;;;;;;;;;;5005402;28;19921;-46
2022/08/11 02:57:54;;;;;;;4.82;3.65;;;;;;;;;;5003431;28;20271;-46
2022/08/11 03:00:20;;;;;;;4.00;3.40;;;;;;;;;;5007178;28;20521;-48
2022/08/11 03:03:15;;;;;;;3.80;3.47;;;;;;;;;;5004402;28;20113;-46
2022/08/11 03:06:10;;;;;;;6.05;3.85;;;;;;;;;;5005073;28;20637;-46
2022/08/11 03:09:15;;;;;;;3.85;3.55;;;;;;;;;;5005219;28;20060;-46
2022/08/11 03:18:25;;;;;;;3.80;3.17;;;;;;;;;;5001080;28;20065;-45
2022/08/11 03:21:01;;;;;;;4.63;3.60;;;;;;;;;;5001230;28;20446;-48
2022/08/11 03:23:38;;;;;;;6.97;3.63;;;;;;;;;;5003782;28;20532;-51
2022/08/11 03:26:21;;;;;;;3.30;3.00;;;;;;;;;;5005399;28;20034;-47
2022/08/11 03:29:00;;;;;;;8.65;3.20;;;;;;;;;;5001430;28;20506;-47
2022/08/11 03:32:05;;;;;;;3.53;3.22;;;;;;;;;;5005661;28;20034;-46
2022/08/11 03:34:36;;;;;;;8.30;3.95;;;;;;;;;;4984020;28;20045;-45
2022/08/11 03:41:41;;;;;;;4.55;2.80;;;;;;;;;;4983423;28;20120;-47
2022/08/11 03:43:38;;;;;;;3.30;3.10;;;;;;;;;;4983753;28;20037;-47
2022/08/11 03:46:15;;;;;;;8.75;3.22;;;;;;;;;;4977725;28;20050;-49
2022/08/11 03:49:22;;;;;;;5.57;3.20;;;;;;;;;;4982413;28;20060;-48
2022/08/11 03:52:16;;;;;;;4.55;3.20;;;;;;;;;;4942736;29;20513;-47
2022/08/11 03:55:03;;;;;;;23.33;3.45;;;;;;;;;;4945617;29;20036;-46
2022/08/11 03:57:46;;;;;;;11.93;3.35;;;;;;;;;;4946738;28;20064;-47
2022/08/11 04:00:32;;;;;;;5.95;3.05;;;;;;;;;;4941000;28;20122;-46
2022/08/11 04:03:30;;;;;;;4.53;3.08;;;;;;;;;;4945959;28;20054;-47
2022/08/11 04:06:14;;;;;;;5.63;3.20;;;;;;;;;;4946036;28;20050;-46
2022/08/11 04:08:48;;;;;;;6.63;3.20;;;;;;;;;;4945924;29;20038;-46
2022/08/11 04:11:36;;;;;;;4.03;2.97;;;;;;;;;;4946067;28;20073;-47
2022/08/11 04:17:53;;;;;;;6.32;3.20;;;;;;;;;;4943776;28;20043;-46
2022/08/11 04:20:50;;;;;;;3.00;2.80;;;;;;;;;;4944641;28;20035;-46
2022/08/11 04:24:06;;;;;;;8.15;3.20;;;;;;;;;;5000148;28;20081;-48
2022/08/11 04:27:13;;;;;;;5.55;3.47;;;;;;;;;;5004787;28;20038;-46
2022/08/11 04:30:26;;;;;;;9.45;3.10;;;;;;;;;;5007215;28;20030;-48
2022/08/11 04:33:36;;;;;;;5.20;3.30;;;;;;;;;;5002747;28;20064;-46
2022/08/11 04:40:18;;;;;;;5.70;3.28;;;;;;;;;;5008965;28;20053;-46
2022/08/11 04:43:26;;;;;;;5.20;3.28;;;;;;;;;;5007033;28;20052;-48
2022/08/11 04:46:21;;;;;;;8.07;3.65;;;;;;;;;;5008449;28;20125;-45
2022/08/11 05:01:56;;;;;;;5.10;3.10;;;;;;;;;;5012064;28;20033;-46
2022/08/11 05:07:51;;;;;;;3.90;2.88;;;;;;;;;;5008140;28;20399;-46
2022/08/11 05:10:35;;;;;;;3.53;3.00;;;;;;;;;;5006415;28;20423;-49
2022/08/11 05:36:15;;;;;;;4.10;2.97;;;;;;;;;;5006901;28;20116;-47
2022/08/11 05:58:09;;;;;;;4.95;2.80;;;;;;;;;;5007205;28;20046;-47
2022/08/11 06:00:44;;;;;;;3.05;2.85;;;;;;;;;;5006653;28;20096;-47
2022/08/11 06:03:19;;;;;;;4.38;2.90;;;;;;;;;;5006894;28;20546;-46
2022/08/11 06:05:45;;;;;;;3.83;3.00;;;;;;;;;;5005238;28;20032;-48
2022/08/11 06:08:13;;;;;;;6.60;3.00;;;;;;;;;;5006502;28;20585;-45
2022/08/11 06:10:42;;;;;;;2.88;2.67;;;;;;;;;;5004975;28;20088;-46
2022/08/11 06:13:09;;;;;;;2.70;2.50;;;;;;;;;;5004626;28;20120;-46
2022/08/11 06:15:44;;;;;;;11.25;3.20;;;;;;;;;;5008741;28;20076;-46
2022/08/11 06:18:12;;;;;;;11.63;3.10;;;;;;;;;;5002938;28;20281;-47
2022/08/11 06:20:49;;;;;;;9.10;3.20;;;;;;;;;;5004376;28;20104;-51
2022/08/11 06:23:21;;;;;;;9.10;3.20;;;;;;;;;;5002816;28;20125;-47
2022/08/11 06:25:49;;;;;;;5.32;2.78;;;;;;;;;;5004197;28;20060;-46
2022/08/11 06:28:17;;;;;;;3.28;2.97;;;;;;;;;;5006178;28;20044;-46
2022/08/11 06:30:44;;;;;;;8.77;3.10;;;;;;;;;;5007479;28;20033;-46
2022/08/11 06:33:13;;;;;;;8.38;3.03;;;;;;;;;;5006804;28;20775;-46
2022/08/11 06:36:20;;;;;;;3.28;2.97;;;;;;;;;;5007634;28;20042;-46
2022/08/11 06:39:08;;;;;;;7.72;2.83;;;;;;;;;;4966430;28;20058;-45
2022/08/11 06:41:45;;;;;;;3.60;3.03;;;;;;;;;;4966888;28;20789;-47
2022/08/11 06:44:11;;;;;;;3.13;2.80;;;;;;;;;;4966206;28;20049;-50
2022/08/11 06:46:39;;;;;;;6.68;2.70;;;;;;;;;;4966923;28;20427;-47
2022/08/11 06:51:53;;;;;;;3.92;2.72;;;;;;;;;;4963709;28;20039;-47
2022/08/11 06:54:20;;;;;;;5.45;3.15;;;;;;;;;;4967484;28;20031;-48
2022/08/11 07:02:51;;;;;;;9.18;3.00;;;;;;;;;;4964370;28;20066;-47
2022/08/11 07:05:27;;;;;;;7.72;2.97;;;;;;;;;;4955378;28;20039;-46
2022/08/11 07:16:43;;;;;;;3.50;3.20;;;;;;;;;;5004074;28;20598;-50
2022/08/11 07:30:29;;;;;;;6.00;3.03;;;;;;;;;;5005715;28;20033;-48
2022/08/11 07:33:01;;;;;;;3.85;3.28;;;;;;;;;;5004074;28;20060;-45
2022/08/11 07:35:41;;;;;;;;;;;;;;;;;;5003479;28;20018;-46
2022/08/11 07:38:13;;;;;;;3.47;3.05;;;;;;;;;;5003720;28;19918;-49
2022/08/11 07:40:41;;;;;;;5.65;3.20;;;;;;;;;;5003720;28;20034;-49
2022/08/11 07:43:08;;;;;;;5.03;2.90;;;;;;;;;;5008739;28;20087;-49
2022/08/11 07:53:50;;;;;;;3.88;3.20;;;;;;;;;;5003202;28;20030;-49
2022/08/11 07:56:18;;;;;;;7.38;2.80;;;;;;;;;;5003494;28;20061;-49
2022/08/11 08:18:07;;;;;;;5.55;2.97;;;;;;;;;;5006835;28;20036;-48
2022/08/11 08:20:39;;;;;;;5.90;3.08;;;;;;;;;;5008700;28;20076;-46
2022/08/11 08:23:05;;;;;;;4.95;2.60;;;;;;;;;;5007624;28;20042;-46
2022/08/11 08:25:38;;;;;;;12.15;3.40;;;;;;;;;;5008842;28;20084;-50
2022/08/11 08:28:12;;;;;;;10.57;3.30;;;;;;;;;;5007503;28;20048;-50
2022/08/11 08:30:49;;;;;;;6.43;2.75;;;;;;;;;;5007075;28;20094;-46
2022/08/11 08:33:23;;;;;;;5.10;3.20;;;;;;;;;;5008248;28;20026;-49
2022/08/11 08:36:10;;;;;;;3.90;2.80;;;;;;;;;;5008140;28;20036;-46
2022/08/11 08:38:52;;;;;;;5.63;3.20;;;;;;;;;;5008987;28;20033;-47
2022/08/11 08:41:27;;;;;;;3.08;2.88;;;;;;;;;;5005590;28;20113;-48
2022/08/11 08:43:56;;;;;;;5.97;2.80;;;;;;;;;;5008531;28;20491;-46
2022/08/11 08:46:27;;;;;;;6.60;3.08;;;;;;;;;;5007754;28;20041;-47
2022/08/11 08:48:54;;;;;;;11.82;3.20;;;;;;;;;;5007879;28;20483;-50
2022/08/11 08:51:33;;;;;;;6.25;3.80;;;;;;;;;;5007573;28;20042;-46
2022/08/11 08:54:13;;;;;;;6.70;3.15;;;;;;;;;;5009138;28;20113;-48
2022/08/11 08:56:41;;;;;;;8.77;3.50;;;;;;;;;;5006977;28;20630;-48
2022/08/11 08:59:09;;;;;;;7.00;3.38;;;;;;;;;;5011595;28;20081;-46
2022/08/11 09:01:44;;;;;;;9.10;3.50;;;;;;;;;;5004828;28;20034;-50
2022/08/11 09:04:11;;;;;;;13.40;3.60;;;;;;;;;;5003808;28;20037;-46
2022/08/11 09:06:44;;;;;;;3.78;3.08;;;;;;;;;;5009923;28;20375;-46
2022/08/11 09:09:13;;;;;;;3.67;2.97;;;;;;;;;;5008533;28;20026;-46
2022/08/11 09:11:52;;;;;;;4.10;2.97;;;;;;;;;;5006812;28;20036;-47
2022/08/11 09:14:19;;;;;;;12.65;3.30;;;;;;;;;;5007869;28;20124;-46
2022/08/11 09:16:47;;;;;;;3.60;3.30;;;;;;;;;;5005610;28;20441;-47
2022/08/11 09:19:17;;;;;;;9.35;3.00;;;;;;;;;;5007867;28;20034;-47
2022/08/11 09:26:58;;;;;;;10.43;3.33;;;;;;;;;;5007815;28;20490;-47
2022/08/11 09:27:34;;;;;;;6.85;2.80;;;;;;;;;;5007170;28;20037;-48
2022/08/11 09:30:00;;;;;;;4.72;2.70;;;;;;;;;;5008108;28;20107;-46
2022/08/11 09:32:28;;;;;;;3.03;2.80;;;;;;;;;;5005293;28;20045;-49
2022/08/11 09:34:54;;;;;;;5.55;2.60;;;;;;;;;;5008740;28;20029;-47
2022/08/11 09:45:37;;;;;;;10.85;3.70;;;;;;;;;;5007963;28;20030;-46
2022/08/11 09:48:04;;;;;;;6.82;3.20;;;;;;;;;;5008341;28;20060;-50
2022/08/11 09:50:33;;;;;;;13.00;3.15;;;;;;;;;;5006487;28;20061;-46
2022/08/11 09:53:00;;;;;;;13.15;3.42;;;;;;;;;;5007500;28;20034;-50
2022/08/11 09:55:26;;;;;;;14.27;3.53;;;;;;;;;;5008255;28;20025;-48
2022/08/11 10:00:36;;;;;;;8.73;3.33;;;;;;;;;;5006537;28;20030;-46
2022/08/11 10:03:08;;;;;;;12.00;2.90;;;;;;;;;;5006780;28;20128;-48
2022/08/11 10:08:25;;;;;;;12.90;3.42;;;;;;;;;;5005519;28;20030;-47
2022/08/11 10:10:52;;;;;;;8.03;3.50;;;;;;;;;;5004319;28;20489;-47
2022/08/11 10:13:24;;;;;;;7.05;3.08;;;;;;;;;;5006089;28;20314;-48
2022/08/11 10:15:53;;;;;;;7.28;3.05;;;;;;;;;;5006560;28;20023;-46
2022/08/11 10:18:41;;;;;;;5.15;3.20;;;;;;;;;;5005351;28;20073;-46
2022/08/11 10:21:36;;;;;;;3.42;2.70;;;;;;;;;;5004483;28;20029;-47
2022/08/11 10:26:57;;;;;;;5.50;3.30;;;;;;;;;;5005368;28;20018;-49
2022/08/11 10:35:14;;;;;;;5.05;3.40;;;;;;;;;;5002581;28;20026;-47
2022/08/11 10:37:43;;;;;;;4.97;3.38;;;;;;;;;;5004484;28;20065;-46
2022/08/11 10:40:14;;;;;;;7.35;3.25;;;;;;;;;;5006127;28;20352;-50
2022/08/11 10:48:11;;;;;;;5.43;3.05;;;;;;;;;;5006924;28;20502;-47
2022/08/11 10:59:03;;;;;;;6.20;3.70;;;;;;;;;;5081990;27;20464;-46
2022/08/11 11:01:32;;;;;;;4.05;3.75;;;;;;;;;;5084052;28;20032;-48
2022/08/11 11:04:06;;;;;;;9.10;3.88;;;;;;;;;;5085611;28;20036;-48
2022/08/11 11:06:42;;;;;;;4.07;3.70;;;;;;;;;;5082821;28;20547;-49
2022/08/11 11:09:15;;;;;;;8.13;4.30;;;;;;;;;;5087702;28;20055;-45
2022/08/11 11:20:15;;;;;;;5.38;4.18;;;;;;;;;;5080057;28;20031;-48
2022/08/11 11:22:46;;;;;;;4.88;4.35;;;;;;;;;;5082338;28;20032;-45
2022/08/11 11:25:15;;;;;;;7.05;4.20;;;;;;;;;;5079256;28;20038;-49
2022/08/11 11:28:03;;;;;;;6.35;3.90;;;;;;;;;;5083902;28;20039;-45
2022/08/11 11:30:40;;;;;;;4.20;3.90;;;;;;;;;;5082833;28;20024;-48
2022/08/11 11:33:27;;;;;;;7.80;3.97;;;;;;;;;;5078276;28;20060;-46
2022/08/11 11:36:11;;;;;;;5.22;3.80;;;;;;;;;;5082236;28;20032;-47
2022/08/11 11:38:37;;;;;;;8.02;3.78;;;;;;;;;;5082025;28;20029;-45
2022/08/11 11:43:47;;;;;;;9.30;4.00;;;;;;;;;;5081203;28;20054;-49
2022/08/11 11:46:13;;;;;;;9.25;3.53;;;;;;;;;;5079219;28;20025;-47
2022/08/11 11:48:40;;;;;;;7.75;3.83;;;;;;;;;;5085775;28;20085;-46
2022/08/11 11:51:06;;;;;;;4.05;3.67;;;;;;;;;;5082211;28;20028;-50
2022/08/11 11:53:33;;;;;;;6.35;3.80;;;;;;;;;;5083773;28;20028;-49
2022/08/11 11:56:00;;;;;;;5.55;3.67;;;;;;;;;;5082536;28;20035;-47
2022/08/11 12:01:15;;;;;;;7.63;3.90;;;;;;;;;;5075627;28;20402;-46
2022/08/11 12:03:44;;;;;;;4.82;3.80;;;;;;;;;;5077130;28;20033;-48
2022/08/11 12:06:15;;;;;;;4.00;3.70;;;;;;;;;;5081374;28;20028;-51
2022/08/11 12:08:41;;;;;;;8.03;3.80;;;;;;;;;;5074453;28;20492;-46
2022/08/11 12:13:59;;;;;;;16.27;3.70;;;;;;;;;;5067318;28;20037;-49
2022/08/11 12:16:25;;;;;;;4.65;3.55;;;;;;;;;;5073774;28;20093;-49
2022/08/11 12:18:55;;;;;;;6.15;3.42;;;;;;;;;;5064092;28;20122;-46
2022/08/11 12:21:22;;;;;;;3.60;3.30;;;;;;;;;;5065828;28;20295;-46
2022/08/11 12:29:24;;;;;;;9.10;3.72;;;;;;;;;;5067713;28;20440;-46
2022/08/11 12:31:50;;;;;;;11.50;4.00;;;;;;;;;;5069330;28;20078;-47
2022/08/11 12:34:16;;;;;;;7.65;4.30;;;;;;;;;;5066957;28;20044;-51
2022/08/11 12:36:49;;;;;;;3.83;3.22;;;;;;;;;;5067288;28;20035;-46
2022/08/11 12:45:26;;;;;;;15.38;3.63;;;;;;;;;;5065944;28;20029;-46
2022/08/11 12:53:15;;;;;;;16.77;3.53;;;;;;;;;;5064498;28;20028;-45
2022/08/11 12:58:26;;;;;;;9.93;3.30;;;;;;;;;;5066240;28;20484;-46
2022/08/11 13:06:23;;;;;;;11.90;4.00;;;;;;;;;;5067081;28;20032;-46
2022/08/11 13:08:50;;;;;;;7.80;3.35;;;;;;;;;;5067152;28;20077;-47
2022/08/11 13:14:02;;;;;;;9.38;3.80;;;;;;;;;;5070943;28;20028;-52
2022/08/11 13:17:19;;;;;;;8.40;3.50;;;;;;;;;;5066380;28;20060;-46
2022/08/11 13:19:19;;;;;;;12.75;3.65;;;;;;;;;;5065715;28;20507;-48
2022/08/11 13:21:46;;;;;;;11.32;4.30;;;;;;;;;;5064129;28;20039;-50
2022/08/11 13:24:12;;;;;;;9.73;3.67;;;;;;;;;;5066845;28;20032;-49
2022/08/11 13:26:38;;;;;;;10.00;3.70;;;;;;;;;;5065564;28;20032;-46
2022/08/11 13:29:04;;;;;;;16.73;4.07;;;;;;;;;;5065938;28;20035;-47
2022/08/11 13:31:32;;;;;;;9.13;3.58;;;;;;;;;;5071672;28;20024;-46
2022/08/11 13:33:58;;;;;;;7.10;3.53;;;;;;;;;;5068543;28;20433;-47
2022/08/11 13:36:27;;;;;;;8.27;3.58;;;;;;;;;;5067238;28;20024;-49
2022/08/11 13:38:57;;;;;;;3.97;3.40;;;;;;;;;;5065755;28;20404;-50
2022/08/11 13:41:42;;;;;;;3.97;3.15;;;;;;;;;;5066916;28;20029;-50
2022/08/11 13:44:11;;;;;;;10.70;3.30;;;;;;;;;;5063868;28;20111;-45
2022/08/11 13:46:38;;;;;;;5.75;2.92;;;;;;;;;;5068947;28;20036;-46
2022/08/11 13:49:07;;;;;;;9.48;3.55;;;;;;;;;;5068975;28;20108;-47
2022/08/11 13:51:35;;;;;;;4.10;3.33;;;;;;;;;;5065553;28;20029;-48
2022/08/11 13:54:05;;;;;;;3.38;3.10;;;;;;;;;;5069130;28;20156;-46
2022/08/11 13:56:32;;;;;;;6.88;3.08;;;;;;;;;;5066408;28;20667;-46
2022/08/11 13:59:00;;;;;;;4.40;2.95;;;;;;;;;;5065768;28;20036;-50
2022/08/11 14:01:30;;;;;;;4.20;2.92;;;;;;;;;;5066346;28;20493;-51
2022/08/11 14:04:04;;;;;;;5.82;2.80;;;;;;;;;;5070000;28;20085;-48
2022/08/11 14:06:30;;;;;;;3.80;2.90;;;;;;;;;;5064136;28;20109;-50
2022/08/11 14:08:58;;;;;;;6.90;3.03;;;;;;;;;;5064743;28;20481;-47
2022/08/11 14:14:16;;;;;;;5.35;3.15;;;;;;;;;;5070420;28;20125;-51
2022/08/11 14:16:43;;;;;;;4.35;2.95;;;;;;;;;;5065164;28;20032;-47
2022/08/11 14:19:14;;;;;;;5.50;3.10;;;;;;;;;;5064167;28;20032;-47
2022/08/11 14:24:30;;;;;;;5.85;3.08;;;;;;;;;;5067022;28;20099;-48
2022/08/11 14:26:56;;;;;;;8.35;3.40;;;;;;;;;;5068495;28;20082;-48
2022/08/11 14:29:25;;;;;;;3.65;3.00;;;;;;;;;;5066789;28;20476;-46
2022/08/11 14:31:54;;;;;;;7.63;3.70;;;;;;;;;;5062985;28;20255;-47
2022/08/11 14:34:23;;;;;;;6.60;3.03;;;;;;;;;;5067090;28;20024;-46
2022/08/11 14:36:52;;;;;;;7.88;3.42;;;;;;;;;;5069111;28;20509;-47
2022/08/11 14:39:24;;;;;;;8.02;3.40;;;;;;;;;;5067758;28;20028;-46
2022/08/11 14:47:26;;;;;;;7.60;3.13;;;;;;;;;;5065673;28;20024;-47
2022/08/11 14:49:54;;;;;;;6.22;3.60;;;;;;;;;;5068706;28;20051;-52
2022/08/11 14:52:19;;;;;;;8.00;3.30;;;;;;;;;;5067652;28;20481;-45
2022/08/11 14:57:37;;;;;;;2.97;2.85;;;;;;;;;;5065845;28;20052;-46
2022/08/11 15:00:06;;;;;;;3.30;3.10;;;;;;;;;;5065932;28;20087;-47
2022/08/11 15:05:20;;;;;;;6.68;3.38;;;;;;;;;;5060540;28;20031;-51
2022/08/11 15:07:46;;;;;;;11.52;3.50;;;;;;;;;;5063843;28;20032;-46
2022/08/11 15:10:12;;;;;;;11.35;3.20;;;;;;;;;;5064887;28;20518;-46
2022/08/11 15:12:42;;;;;;;3.58;3.25;;;;;;;;;;5065560;28;20091;-48
2022/08/11 15:17:57;;;;;;;7.22;3.33;;;;;;;;;;5068922;28;20047;-48
2022/08/11 15:26:18;;;;;;;7.00;3.58;;;;;;;;;;5068512;28;20369;-45
2022/08/11 15:45:48;;;;;;;5.72;3.60;;;;;;;;;;5066841;28;20111;-48
2022/08/11 15:48:24;;;;;;;3.70;3.40;;;;;;;;;;5066757;28;20020;-49
2022/08/11 15:50:53;;;;;;;3.63;3.33;;;;;;;;;;5066156;28;20032;-46
2022/08/11 15:53:25;;;;;;;3.42;3.20;;;;;;;;;;5069704;28;20024;-46
2022/08/11 15:55:53;;;;;;;5.40;3.30;;;;;;;;;;5067718;28;20502;-51
2022/08/11 16:04:10;;;;;;;5.82;3.80;;;;;;;;;;5066725;28;20080;-48
2022/08/11 16:06:44;;;;;;;5.95;3.03;;;;;;;;;;5066445;28;20378;-46
2022/08/11 16:09:13;;;;;;;3.92;3.58;;;;;;;;;;5068963;28;20031;-48
2022/08/11 16:11:40;;;;;;;3.47;3.28;;;;;;;;;;5101680;28;20024;-52
2022/08/11 16:16:56;;;;;;;6.22;2.92;;;;;;;;;;5071011;28;20056;-47
2022/08/11 16:19:25;;;;;;;5.28;3.30;;;;;;;;;;5068102;28;20043;-46
2022/08/11 16:21:52;;;;;;;3.70;3.33;;;;;;;;;;5068473;28;20032;-45
2022/08/11 16:24:19;;;;;;;3.20;3.00;;;;;;;;;;5066820;28;20031;-46
2022/08/11 16:26:46;;;;;;;6.07;3.20;;;;;;;;;;5065731;28;20598;-45
2022/08/11 16:29:12;;;;;;;3.88;3.20;;;;;;;;;;5067003;28;20439;-46
2022/08/11 16:31:40;;;;;;;3.30;3.00;;;;;;;;;;5068668;28;20040;-46
2022/08/11 16:38:33;;;;;;;5.88;3.33;;;;;;;;;;5068033;28;20469;-46
2022/08/11 16:39:41;;;;;;;3.70;3.40;;;;;;;;;;5065978;28;20024;-46
2022/08/11 16:47:43;;;;;;;3.50;3.20;;;;;;;;;;5066432;28;20025;-48
2022/08/11 16:50:09;;;;;;;3.22;3.03;;;;;;;;;;5067464;28;20110;-49
2022/08/11 16:52:35;;;;;;;4.13;2.90;;;;;;;;;;5068069;28;20033;-46
2022/08/11 16:55:02;;;;;;;14.48;3.53;;;;;;;;;;5070037;28;20054;-45
2022/08/11 17:00:16;;;;;;;3.65;2.65;;;;;;;;;;5066557;28;20032;-50
2022/08/11 17:13:59;;;;;;;9.88;3.35;;;;;;;;;;5066593;28;20074;-48
2022/08/11 17:16:38;;;;;;;6.68;2.92;;;;;;;;;;5067394;28;20481;-51
2022/08/11 17:19:11;;;;;;;6.78;3.10;;;;;;;;;;5065826;28;20126;-45
2022/08/11 17:24:34;;;;;;;4.05;3.42;;;;;;;;;;5072150;28;20025;-47
2022/08/11 17:27:00;;;;;;;6.55;3.30;;;;;;;;;;5067928;28;20043;-48
2022/08/11 17:29:34;;;;;;;4.28;3.40;;;;;;;;;;5065242;28;20029;-47
2022/08/11 17:37:36;;;;;;;3.40;3.10;;;;;;;;;;5064718;28;20377;-46
2022/08/11 17:40:05;;;;;;;3.35;3.15;;;;;;;;;;5067555;28;20043;-46
2022/08/11 17:50:51;;;;;;;3.85;3.55;;;;;;;;;;5066265;28;20478;-48
2022/08/11 18:01:37;;;;;;;3.92;3.63;;;;;;;;;;5068747;28;20028;-47
2022/08/11 18:04:06;;;;;;;6.13;3.70;;;;;;;;;;5066935;28;20035;-47
2022/08/11 18:06:34;;;;;;;4.20;3.80;;;;;;;;;;5066562;28;20036;-51
